高雄終端管制區 - 高雄雷達席

METAR RCKH 252000Z 07005KT 7000 FEW015 SCT035 25/25 Q1009 NOSIG RMK A2981=

站台狀態:Online
最後更新:2019-05-26 04:45:03